createdAt,value
2024-01-10T00:03:12.596Z,100403.40
2024-01-10T00:08:17.812Z,100400.25
2024-01-10T00:14:19.842Z,100401.59
2024-01-10T00:19:42.107Z,100389.80
2024-01-10T00:24:45.780Z,100384.71
2024-01-10T00:29:47.731Z,100382.15
2024-01-10T00:34:50.119Z,100381.20
2024-01-10T00:39:52.367Z,100378.23
2024-01-10T00:44:54.671Z,100368.95
2024-01-10T00:49:56.926Z,100375.07
2024-01-10T00:54:59.216Z,100383.44
2024-01-10T01:00:01.633Z,100384.75
2024-01-10T01:05:04.326Z,100391.09
2024-01-10T01:10:07.293Z,100397.21
2024-01-10T01:15:09.728Z,100390.73
2024-01-10T01:20:11.952Z,100394.13
2024-01-10T01:25:14.324Z,100390.71
2024-01-10T01:30:16.707Z,100388.90
2024-01-10T01:35:23.140Z,100386.55
2024-01-10T01:40:25.331Z,100398.13
2024-01-10T01:45:27.524Z,100402.86
2024-01-10T01:50:30.174Z,100400.45
2024-01-10T01:55:32.278Z,100397.11
2024-01-10T02:00:35.262Z,100391.92
2024-01-10T02:05:38.549Z,100380.52
2024-01-10T02:10:40.979Z,100369.98
2024-01-10T02:15:43.125Z,100363.92
2024-01-10T02:20:49.002Z,100354.23
2024-01-10T02:25:51.376Z,100354.52
2024-01-10T02:30:55.828Z,100350.25
2024-01-10T02:35:58.289Z,100348.21
2024-01-10T02:41:02.044Z,100349.77
2024-01-10T02:46:07.187Z,100351.20
2024-01-10T02:51:09.242Z,100358.08
2024-01-10T02:56:11.739Z,100357.08
2024-01-10T03:02:13.630Z,100352.09
2024-01-10T03:08:23.310Z,100340.45
2024-01-10T03:13:25.534Z,100332.83
2024-01-10T03:18:27.866Z,100330.23
2024-01-10T03:23:30.125Z,100333.35
2024-01-10T03:28:47.874Z,100334.79
2024-01-10T03:33:57.597Z,100335.48
2024-01-10T03:39:00.549Z,100336.66
2024-01-10T03:45:02.673Z,100335.02
2024-01-10T03:50:51.629Z,100331.62
2024-01-10T03:55:53.750Z,100326.45
2024-01-10T04:01:18.667Z,100323.42
2024-01-10T04:07:20.536Z,100312.02
2024-01-10T04:12:42.760Z,100306.02
2024-01-10T04:17:45.123Z,100313.34
2024-01-10T04:22:47.299Z,100304.34
2024-01-10T04:27:51.520Z,100306.73
2024-01-10T04:32:53.685Z,100304.07
2024-01-10T04:37:55.888Z,100308.27
2024-01-10T04:42:58.265Z,100311.35
2024-01-10T04:48:03.432Z,100317.27
2024-01-10T04:53:05.728Z,100320.02
2024-01-10T04:58:10.121Z,100319.71
2024-01-10T05:03:18.151Z,100316.22
2024-01-10T05:08:22.328Z,100323.23
2024-01-10T05:13:30.141Z,100312.65
2024-01-10T05:18:39.174Z,100317.22
2024-01-10T05:23:41.661Z,100313.59
2024-01-10T05:28:43.865Z,100311.67
2024-01-10T05:33:46.192Z,100303.84
2024-01-10T05:39:48.090Z,100298.35
2024-01-10T05:45:10.543Z,100290.30
2024-01-10T05:50:12.897Z,100293.02
2024-01-10T05:55:15.172Z,100290.42
2024-01-10T06:00:24.546Z,100294.63
2024-01-10T06:05:29.412Z,100295.20
2024-01-10T06:10:37.266Z,100308.26
2024-01-10T06:16:08.274Z,100309.83
2024-01-10T06:21:30.344Z,100314.98
2024-01-10T06:26:34.836Z,100317.91
2024-01-10T06:32:36.864Z,100322.59
2024-01-10T06:38:13.786Z,100324.66
2024-01-10T06:43:16.309Z,100330.47
2024-01-10T06:48:20.305Z,100321.70
2024-01-10T06:53:23.684Z,100321.86
2024-01-10T06:58:26.039Z,100323.48
2024-01-10T07:03:28.493Z,100321.61
2024-01-10T07:08:32.138Z,100321.63
2024-01-10T07:13:34.485Z,100317.91
2024-01-10T07:18:37.737Z,100329.20
2024-01-10T07:23:42.431Z,100326.77
2024-01-10T07:28:44.873Z,100325.97
2024-01-10T07:33:47.817Z,100326.76
2024-01-10T07:38:50.099Z,100311.73
2024-01-10T07:43:52.402Z,100310.71
2024-01-10T07:48:54.714Z,100304.15
2024-01-10T07:54:05.609Z,100300.09
2024-01-10T07:59:07.946Z,100297.34
2024-01-10T08:04:17.589Z,100286.71
2024-01-10T08:09:38.770Z,100281.43
2024-01-10T08:15:01.054Z,100286.38
2024-01-10T08:20:07.734Z,100285.20
2024-01-10T08:25:17.454Z,100289.96
2024-01-10T08:30:42.508Z,100289.16
2024-01-10T08:35:47.451Z,100292.67
2024-01-10T08:40:50.344Z,100287.89
2024-01-10T08:45:59.200Z,100285.52
2024-01-10T08:51:04.441Z,100291.35
2024-01-10T08:56:07.491Z,100290.70
2024-01-10T09:01:12.291Z,100281.37
2024-01-10T09:06:14.770Z,100285.69
2024-01-10T09:11:17.192Z,100285.92
2024-01-10T09:16:40.269Z,100293.50
2024-01-10T09:22:22.742Z,100287.73
2024-01-10T09:27:33.232Z,100285.63
2024-01-10T09:32:44.424Z,100288.05
2024-01-10T09:37:46.716Z,100283.39
2024-01-10T09:42:52.538Z,100274.55
2024-01-10T09:48:00.308Z,100265.58
2024-01-10T09:53:08.945Z,100261.60
2024-01-10T09:58:11.787Z,100258.89
2024-01-10T10:03:15.660Z,100259.48
2024-01-10T10:08:23.890Z,100264.92
2024-01-10T10:13:28.052Z,100255.13
2024-01-10T10:18:31.473Z,100250.43
2024-01-10T10:23:34.371Z,100243.04
2024-01-10T10:28:36.651Z,100242.23
2024-01-10T10:33:39.086Z,100248.85
2024-01-10T10:38:41.678Z,100248.46
2024-01-10T10:43:43.869Z,100237.38
2024-01-10T10:48:46.284Z,100241.70
2024-01-10T10:53:49.611Z,100233.53
2024-01-10T10:58:52.756Z,100220.67
2024-01-10T11:03:55.326Z,100220.90
2024-01-10T11:09:12.663Z,100224.86
2024-01-10T11:14:23.985Z,100218.83
2024-01-10T11:20:00.999Z,100213.10
2024-01-10T11:25:03.469Z,100206.88
2024-01-10T11:30:07.269Z,100204.39
2024-01-10T11:35:22.083Z,100201.03
2024-01-10T11:40:50.160Z,100199.85
2024-01-10T11:45:58.630Z,100197.21
2024-01-10T11:51:02.171Z,100198.11
2024-01-10T12:11:13.053Z,100184.96
2024-01-10T12:16:15.958Z,100178.40
2024-01-10T12:21:19.073Z,100184.91
2024-01-10T12:26:21.349Z,100176.60
2024-01-10T12:31:27.258Z,100173.56
2024-01-10T12:36:29.560Z,100176.81
2024-01-10T12:41:32.708Z,100169.53
2024-01-10T12:46:35.196Z,100165.11
2024-01-10T12:51:40.498Z,100168.02
2024-01-10T12:56:43.129Z,100168.88
2024-01-10T13:02:05.013Z,100161.11
2024-01-10T13:07:10.173Z,100155.04
2024-01-10T13:12:15.025Z,100147.66
2024-01-10T13:17:19.783Z,100139.77
2024-01-10T13:22:22.470Z,100131.12
2024-01-10T13:27:25.648Z,100128.20
2024-01-10T13:32:30.228Z,100131.44
2024-01-10T13:37:33.761Z,100129.96
2024-01-10T13:42:35.865Z,100123.70
2024-01-10T13:47:39.737Z,100117.98
2024-01-10T13:52:47.462Z,100111.98
2024-01-10T13:57:54.380Z,100109.84
2024-01-10T14:04:16.585Z,100104.86
2024-01-10T14:09:55.727Z,100108.24
2024-01-10T14:14:59.678Z,100106.71
2024-01-10T14:20:03.359Z,100101.36
2024-01-10T14:25:07.079Z,100091.07
2024-01-10T14:30:10.129Z,100095.31
2024-01-10T14:35:12.959Z,100092.91
2024-01-10T14:40:15.673Z,100101.80
2024-01-10T14:45:17.798Z,100104.77
2024-01-10T14:50:20.773Z,100108.97
2024-01-10T14:55:22.905Z,100104.98
2024-01-10T15:00:25.246Z,100111.95
2024-01-10T15:05:28.154Z,100109.52
2024-01-10T15:10:30.394Z,100116.25
2024-01-10T15:15:34.136Z,100114.30
2024-01-10T15:20:36.804Z,100109.05
2024-01-10T15:25:39.676Z,100114.40
2024-01-10T15:30:47.859Z,100112.60
2024-01-10T15:35:51.727Z,100105.48
2024-01-10T15:40:54.833Z,100105.04
2024-01-10T15:45:56.920Z,100100.23
2024-01-10T15:50:59.555Z,100096.35
2024-01-10T15:56:01.778Z,100088.05
2024-01-10T16:01:04.808Z,100087.55
2024-01-10T16:06:07.739Z,100085.52
2024-01-10T16:12:09.985Z,100083.70
2024-01-10T16:17:33.150Z,100082.70
2024-01-10T16:22:35.381Z,100074.66
2024-01-10T16:27:37.912Z,100077.11
2024-01-10T16:32:40.955Z,100079.77
2024-01-10T16:37:43.407Z,100081.27
2024-01-10T16:42:46.404Z,100071.45
2024-01-10T16:47:50.123Z,100068.13
2024-01-10T16:53:02.574Z,100071.18
2024-01-10T16:58:04.857Z,100061.73
2024-01-10T17:03:08.452Z,100063.77
2024-01-10T17:08:15.764Z,100061.50
2024-01-10T17:13:18.233Z,100059.77
2024-01-10T17:18:20.815Z,100063.89
2024-01-10T17:23:25.892Z,100064.94
2024-01-10T17:28:28.962Z,100067.02
2024-01-10T17:33:31.384Z,100070.52
2024-01-10T17:38:33.604Z,100071.14
2024-01-10T17:43:36.125Z,100070.91
2024-01-10T17:48:38.487Z,100062.59
2024-01-10T17:53:41.025Z,100065.88
2024-01-10T17:58:43.946Z,100060.02
2024-01-10T18:03:47.203Z,100057.11
2024-01-10T18:08:50.906Z,100058.44
2024-01-10T18:13:53.673Z,100053.40
2024-01-10T18:18:56.373Z,100050.83
2024-01-10T18:23:59.379Z,100052.26
2024-01-10T18:29:02.080Z,100047.89
2024-01-10T18:34:04.722Z,100036.28
2024-01-10T18:39:14.164Z,100030.74
2024-01-10T18:44:16.601Z,100025.92
2024-01-10T18:49:18.910Z,100024.36
2024-01-10T18:54:24.098Z,100011.56
2024-01-10T18:59:28.207Z,100006.73
2024-01-10T19:04:31.200Z,99998.48
2024-01-10T19:09:33.768Z,100000.65
2024-01-10T19:14:37.111Z,99999.97
2024-01-10T19:20:39.032Z,100001.35
2024-01-10T19:26:01.411Z,100004.27
2024-01-10T19:31:04.373Z,100006.05
2024-01-10T19:36:08.150Z,99998.65
2024-01-10T19:41:19.895Z,99990.59
2024-01-10T19:47:21.846Z,99990.23
2024-01-10T19:52:44.382Z,99986.80
2024-01-10T19:57:46.939Z,99985.61
2024-01-10T20:02:50.120Z,99996.50
2024-01-10T20:07:54.626Z,100002.55
2024-01-10T20:12:57.031Z,100009.14
2024-01-10T20:18:00.831Z,100006.30
2024-01-10T20:24:02.709Z,100006.38
2024-01-10T20:30:24.887Z,100003.23
2024-01-10T20:35:47.058Z,99991.89
2024-01-10T20:41:51.688Z,99989.89
2024-01-10T20:48:14.836Z,99988.34
2024-01-10T20:54:39.470Z,99985.88
2024-01-10T21:01:02.655Z,99987.52
2024-01-10T21:06:26.538Z,99989.10
2024-01-10T21:12:28.497Z,99988.98
2024-01-10T21:18:51.417Z,99988.50
2024-01-10T21:24:50.476Z,99993.14
2024-01-10T21:29:55.939Z,100002.33
2024-01-10T21:34:58.547Z,100002.33
2024-01-10T21:40:01.066Z,99991.29
2024-01-10T21:45:03.574Z,99987.91
2024-01-10T21:50:06.238Z,99990.09
2024-01-10T21:55:09.007Z,99991.27
2024-01-10T22:00:32.818Z,99992.79
2024-01-10T22:05:35.102Z,99987.66
2024-01-10T22:10:38.163Z,99990.44
2024-01-10T22:15:40.312Z,99977.96
2024-01-10T22:20:45.818Z,99972.77
2024-01-10T22:25:48.501Z,99958.23
2024-01-10T22:30:51.714Z,99962.91
2024-01-10T22:35:54.219Z,99954.46
2024-01-10T22:40:57.060Z,99953.59
2024-01-10T22:46:02.510Z,99949.04
2024-01-10T22:51:04.970Z,99942.94
2024-01-10T22:56:07.327Z,99943.34
2024-01-10T23:01:09.851Z,99943.95
2024-01-10T23:06:12.196Z,99943.31
2024-01-10T23:11:15.028Z,99932.73
2024-01-10T23:16:17.094Z,99931.48
2024-01-10T23:21:19.685Z,99931.45
2024-01-10T23:26:22.042Z,99928.35
2024-01-10T23:32:04.390Z,99919.50
2024-01-10T23:37:10.162Z,99917.16
2024-01-10T23:42:12.360Z,99914.52
2024-01-10T23:47:14.475Z,99909.73
2024-01-10T23:52:16.647Z,99906.84
2024-01-10T23:57:37.969Z,99907.06
